MZBZ

Philip S W Goldson International Airport

Airport
ICAO code
MZBZ
IATA Code
BZE
Summary
ICAO Region
CARSAM
ICAO Territory
Location

Ladyville, Belize District

Serving
Belize City
Elevation
16 ft
Coordinates
17° 32' 23" N , 88° 18' 20" W
KCC
Am
Airport WX
Tropical Revolving Storm
Metar
Observation
MZBZ 121500Z 13004KT 9999 BKN022 29/25 A2996 Q1014 NOSIG
Station
Belize / Phillip Goldston Intl. Airport
Date/Time
2022-08-12 15:00:00
Wind direction
130°
Wind speed
04 kts
Lowest cloud amount
broken clouds
Temperature
29°C
Dew point
25°C
Humidity
79%
Weather condition
n/a

Philip S. W. Goldson International Airport is an airport that serves Belize's largest city, Belize City.

Climatology

Tropical monsoon climate (Köppen climate classification Am)

Belize is vulnerable to Hurricanes from July to October.

Runways

Designator Length Width Surface Rops
7/25 2164 46 ASP Yes/Yes

Airport map

Aerial View

SKYbrary Partners:

Safety knowledge contributed by: